Time;durP1;ratioP1;P1;durP2;ratioP2;P2;SDS_P1;SDS_P2;PMS_P1;PMS_P2;Temp;Humidity;BMP_temperature;BMP_pressure;BME280_temperature;BME280_humidity;BME280_pressure;Samples;Min_cycle;Max_cycle;Signal;HPM_P1;HPM_P2
2022/06/03 00:01:06;;;;;;;4.53;3.10;;;;;;;;;;5070120;28;20083;-74
2022/06/03 00:03:38;;;;;;;4.07;2.90;;;;;;;;;;5071626;28;20467;-74
2022/06/03 00:06:04;;;;;;;7.18;3.20;;;;;;;;;;5084049;28;20039;-74
2022/06/03 00:08:49;;;;;;;5.47;3.30;;;;;;;;;;5059616;28;20024;-74
2022/06/03 00:11:33;;;;;;;6.28;2.85;;;;;;;;;;5071127;28;20067;-74
2022/06/03 00:14:17;;;;;;;5.20;3.03;;;;;;;;;;5075781;28;20469;-74
2022/06/03 00:17:02;;;;;;;10.25;4.00;;;;;;;;;;5060606;28;20510;-74
2022/06/03 00:19:41;;;;;;;5.75;2.80;;;;;;;;;;5059648;28;20029;-74
2022/06/03 00:22:07;;;;;;;9.07;3.45;;;;;;;;;;5052932;28;20032;-74
2022/06/03 00:24:42;;;;;;;8.38;3.05;;;;;;;;;;5086247;28;20036;-74
2022/06/03 00:27:36;;;;;;;10.40;3.53;;;;;;;;;;5070185;28;20032;-74
2022/06/03 00:30:21;;;;;;;5.03;3.28;;;;;;;;;;5070447;28;20103;-74
2022/06/03 00:32:59;;;;;;;6.88;2.83;;;;;;;;;;5076732;28;20380;-73
2022/06/03 00:35:31;;;;;;;7.68;2.97;;;;;;;;;;5071707;28;20043;-74
2022/06/03 00:38:00;;;;;;;10.27;3.38;;;;;;;;;;5075040;28;20387;-73
2022/06/03 00:40:45;;;;;;;4.45;2.75;;;11.50;99.90;;;;;;5073099;28;20064;-74
2022/06/03 00:43:29;;;;;;;6.85;3.22;;;;;;;;;;5053387;28;20112;-74
2022/06/03 00:46:20;;;;;;;8.63;3.85;;;11.50;99.90;;;;;;5056044;28;20471;-74
2022/06/03 00:49:02;;;;;;;6.05;3.30;;;;;;;;;;5068960;28;20096;-74
2022/06/03 00:51:54;;;;;;;5.22;3.35;;;11.50;99.90;;;;;;5072241;28;20392;-74
2022/06/03 00:54:26;;;;;;;7.15;3.28;;;;;;;;;;5022414;28;20073;-73
2022/06/03 00:57:27;;;;;;;6.68;3.50;;;;;;;;;;5068327;28;20040;-73
2022/06/03 01:00:03;;;;;;;5.90;3.40;;;;;;;;;;4995111;28;20060;-73
2022/06/03 01:02:44;;;;;;;6.57;3.83;;;;;;;;;;5044455;28;20052;-74
2022/06/03 01:05:10;;;;;;;7.07;3.50;;;;;;;;;;5069291;28;20055;-74
2022/06/03 01:07:42;;;;;;;7.10;3.55;;;;;;;;;;5070646;28;20044;-74
2022/06/03 01:10:08;;;;;;;4.50;3.90;;;;;;;;;;5075675;28;20369;-74
2022/06/03 01:12:34;;;;;;;8.20;4.07;;;;;;;;;;5078667;28;20058;-74
2022/06/03 01:15:21;;;;;;;11.63;3.78;;;;;;;;;;5071058;28;20447;-73
2022/06/03 01:17:47;;;;;;;5.43;3.45;;;;;;;;;;5070550;28;20551;-73
2022/06/03 01:20:13;;;;;;;8.30;3.78;;;;;;;;;;5079454;28;20491;-73
2022/06/03 01:22:47;;;;;;;5.88;3.50;;;;;;;;;;5081985;28;20029;-73
2022/06/03 01:25:20;;;;;;;7.85;3.22;;;;;;;;;;5073113;28;20128;-74
2022/06/03 01:28:01;;;;;;;;;;;11.00;99.90;;;;;;5074054;28;20482;-74
2022/06/03 01:31:22;;;;;;;6.47;3.88;;;11.00;99.90;;;;;;5070237;28;19908;-73
2022/06/03 01:34:09;;;;;;;8.73;3.95;;;;;;;;;;4955131;28;20031;-73
2022/06/03 01:36:37;;;;;;;7.05;4.22;;;;;;;;;;5077494;28;20051;-72
2022/06/03 01:39:09;;;;;;;9.68;4.25;;;;;;;;;;5078386;28;20106;-73
2022/06/03 01:41:41;;;;;;;6.83;4.63;;;;;;;;;;5079898;28;20043;-73
2022/06/03 01:44:26;;;;;;;12.38;4.28;;;;;;;;;;5069459;28;20318;-73
2022/06/03 01:47:10;;;;;;;7.63;4.30;;;;;;;;;;5071219;28;20098;-73
2022/06/03 01:49:42;;;;;;;8.23;5.07;;;;;;;;;;5069810;28;20028;-72
2022/06/03 01:52:27;;;;;;;7.60;4.10;;;;;;;;;;5091347;28;20036;-74
2022/06/03 01:55:22;;;;;;;7.97;4.70;;;;;;;;;;5080421;28;20496;-73
2022/06/03 01:58:17;;;;;;;7.97;4.55;;;;;;;;;;5040544;28;20049;-73
2022/06/03 02:00:46;;;;;;;12.27;4.47;;;;;;;;;;5000497;28;20557;-74
2022/06/03 02:03:21;;;;;;;5.68;4.28;;;;;;;;;;5073008;28;20493;-74
2022/06/03 02:05:50;;;;;;;10.18;4.95;;;;;;;;;;5060043;28;20069;-74
2022/06/03 02:08:41;;;;;;;7.20;4.30;;;10.50;99.90;;;;;;5040760;28;20495;-73
2022/06/03 02:11:15;;;;;;;9.38;4.32;;;;;;;;;;5082707;28;20048;-73
2022/06/03 02:14:00;;;;;;;6.40;4.68;;;;;;;;;;5082958;28;20104;-72
2022/06/03 02:16:32;;;;;;;8.57;4.45;;;;;;;;;;5080204;28;20433;-74
2022/06/03 02:19:17;;;;;;;7.90;4.88;;;;;;;;;;5073584;28;20044;-74
2022/06/03 02:21:55;;;;;;;12.30;4.72;;;;;;;;;;5082658;28;20065;-74
2022/06/03 02:24:36;;;;;;;7.03;4.45;;;;;;;;;;5073267;28;20029;-74
2022/06/03 02:27:04;;;;;;;10.20;4.82;;;;;;;;;;5074730;28;20036;-74
2022/06/03 02:32:45;;;;;;;5.78;4.55;;;;;;;;;;5076372;28;20400;-73
2022/06/03 02:35:14;;;;;;;7.90;5.40;;;;;;;;;;5078521;28;20016;-73
2022/06/03 02:37:49;;;;;;;12.32;5.13;;;;;;;;;;5091411;28;20036;-73
2022/06/03 02:40:30;;;;;;;10.80;5.00;;;;;;;;;;5074400;28;20040;-73
2022/06/03 02:43:15;;;;;;;6.22;5.00;;;;;;;;;;5069804;28;20110;-73
2022/06/03 02:46:07;;;;;;;6.97;5.10;;;;;;;;;;5075574;28;20032;-74
2022/06/03 02:48:36;;;;;;;10.97;6.00;;;;;;;;;;5093826;28;20048;-74
2022/06/03 02:51:24;;;;;;;10.48;5.57;;;;;;;;;;5071894;28;20841;-74
2022/06/03 02:54:10;;;;;;;9.82;5.97;;;;;;;;;;5072536;28;20034;-74
2022/06/03 02:56:42;;;;;;;8.75;5.20;;;;;;;;;;5070807;28;20093;-73
2022/06/03 02:59:14;;;;;;;9.30;5.40;;;;;;;;;;5088804;28;20024;-74
2022/06/03 03:01:40;;;;;;;8.55;5.38;;;;;;;;;;5078734;28;20032;-74
2022/06/03 03:04:23;;;;;;;9.02;5.75;;;;;;;;;;5080371;28;20468;-74
2022/06/03 03:06:52;;;;;;;9.48;6.03;;;;;;;;;;5072642;28;20032;-73
2022/06/03 03:09:29;;;;;;;10.55;6.43;;;;;;;;;;5083420;28;20123;-73
2022/06/03 03:11:56;;;;;;;10.65;6.32;;;;;;;;;;5073112;28;20054;-74
2022/06/03 03:14:40;;;;;;;9.57;5.63;;;;;;;;;;5075263;28;20473;-73
2022/06/03 03:17:24;;;;;;;12.27;5.80;;;;;;;;;;5072086;28;20067;-74
2022/06/03 03:20:17;;;;;;;7.63;5.63;;;;;;;;;;5059447;28;20467;-73
2022/06/03 03:22:44;;;;;;;11.70;7.05;;;;;;;;;;5058392;28;20433;-73
2022/06/03 03:25:25;;;;;;;11.05;5.75;;;;;;;;;;5063610;28;20024;-74
2022/06/03 03:27:54;;;;;;;7.95;5.63;;;;;;;;;;5064540;28;20039;-73
2022/06/03 03:30:24;;;;;;;8.75;5.75;;;;;;;;;;5069593;28;20029;-74
2022/06/03 03:33:09;;;;;;;9.18;5.78;;;;;;;;;;5071148;28;20103;-73
2022/06/03 03:35:35;;;;;;;11.68;6.50;;;;;;;;;;5071639;28;20032;-73
2022/06/03 03:38:30;;;;;;;12.88;6.88;;;;;;;;;;5054995;28;20032;-72
2022/06/03 03:40:59;;;;;;;9.43;6.55;;;;;;;;;;5073718;28;20074;-72
2022/06/03 03:43:28;;;;;;;10.73;6.57;;;;;;;;;;5079540;28;20107;-73
2022/06/03 03:45:54;;;;;;;23.65;15.32;;;;;;;;;;5070181;28;20032;-80
2022/06/03 03:48:47;;;;;;;23.88;12.90;;;;;;;;;;5095319;28;20035;-83
2022/06/03 03:51:19;;;;;;;30.52;22.13;;;;;;;;;;5080251;28;20610;-81
2022/06/03 03:53:45;;;;;;;13.57;7.28;;;;;;;;;;5071807;28;20099;-73
2022/06/03 03:56:11;;;;;;;9.15;6.20;;;;;;;;;;5061937;28;20162;-75
2022/06/03 03:58:43;;;;;;;12.20;5.80;;;;;;;;;;5076326;28;20016;-74
2022/06/03 04:01:28;;;;;;;18.38;7.15;;;;;;;;;;5069653;28;20028;-73
2022/06/03 04:03:54;;;;;;;9.05;6.32;;;;;;;;;;5063485;28;20028;-73
2022/06/03 04:06:32;;;;;;;8.57;6.82;;;;;;;;;;5070635;28;20074;-73
2022/06/03 04:09:05;;;;;;;11.95;7.53;;;;;;;;;;5061814;28;20049;-73
2022/06/03 04:11:51;;;;;;;9.23;5.65;;;;;;;;;;5072022;28;20841;-73
2022/06/03 04:14:39;;;;;;;12.32;7.03;;;10.20;99.90;;;;;;5051580;28;20147;-73
2022/06/03 04:17:16;;;;;;;12.65;6.88;;;;;;;;;;5069928;28;20041;-73
2022/06/03 04:20:05;;;;;;;9.88;6.25;;;;;;;;;;5065056;28;20029;-73
2022/06/03 04:22:37;;;;;;;12.73;6.38;;;;;;;;;;5039560;28;20124;-73
2022/06/03 04:25:13;;;;;;;14.80;10.25;;;;;;;;;;5075496;28;20032;-73
2022/06/03 04:28:01;;;;;;;17.02;11.15;;;;;;;;;;5067183;28;20165;-72
2022/06/03 04:30:33;;;;;;;12.48;7.32;;;;;;;;;;5056557;28;20456;-72
2022/06/03 04:33:16;;;;;;;11.15;7.28;;;;;;;;;;5053830;28;20028;-72
2022/06/03 04:35:48;;;;;;;12.43;6.18;;;;;;;;;;5066962;28;20120;-72
2022/06/03 04:38:31;;;;;;;10.43;7.30;;;;;;;;;;5055656;28;20037;-72
2022/06/03 04:41:03;;;;;;;10.02;5.97;;;;;;;;;;5059164;28;20711;-73
2022/06/03 04:43:35;;;;;;;9.85;6.63;;;;;;;;;;5064779;28;20025;-72
2022/06/03 04:46:19;;;;;;;9.40;5.80;;;;;;;;;;5053954;28;20036;-72
2022/06/03 04:48:52;;;;;;;10.25;5.50;;;;;;;;;;5068114;28;20037;-72
2022/06/03 04:51:36;;;;;;;12.63;6.57;;;;;;;;;;5072940;28;20032;-73
2022/06/03 04:54:21;;;;;;;7.95;5.03;;;;;;;;;;5051048;28;20393;-73
2022/06/03 04:57:05;;;;;;;7.90;5.32;;;;;;;;;;5070594;28;20056;-72
2022/06/03 04:59:41;;;;;;;15.18;6.20;;;;;;;;;;5087105;28;20111;-73
2022/06/03 05:02:42;;;;;;;7.13;5.20;;;11.10;99.90;;;;;;5062978;28;20461;-74
2022/06/03 05:05:17;;;;;;;13.52;5.10;;;;;;;;;;5053352;28;20033;-74
2022/06/03 05:07:43;;;;;;;8.35;5.47;;;;;;;;;;5050704;28;20037;-74
2022/06/03 05:10:29;;;;;;;7.63;5.03;;;;;;;;;;5071765;28;20052;-74
2022/06/03 05:13:07;;;;;;;6.57;5.07;;;;;;;;;;5063515;28;20029;-74
2022/06/03 05:16:07;;;;;;;9.52;5.50;;;11.50;99.90;;;;;;5075326;28;20029;-74
2022/06/03 05:18:42;;;;;;;9.57;5.55;;;;;;;;;;5015300;28;20480;-74
2022/06/03 05:21:27;;;;;;;11.00;4.82;;;;;;;;;;5078597;28;20033;-74
2022/06/03 05:23:56;;;;;;;11.40;5.38;;;;;;;;;;5057613;28;20024;-74
2022/06/03 05:26:34;;;;;;;6.95;5.35;;;;;;;;;;5068115;28;20028;-75
2022/06/03 05:29:03;;;;;;;8.70;5.47;;;;;;;;;;5052596;28;20025;-74
2022/06/03 05:31:58;;;;;;;7.50;5.15;;;;;;;;;;5059624;28;20028;-74
2022/06/03 05:34:24;;;;;;;12.18;5.38;;;;;;;;;;4982023;28;20576;-74
2022/06/03 05:36:56;;;;;;;5.82;4.10;;;;;;;;;;5066520;28;20032;-74
2022/06/03 05:39:22;;;;;;;6.15;4.35;;;;;;;;;;5060252;28;20021;-74
2022/06/03 05:44:51;;;;;;;9.70;4.35;;;;;;;;;;5081874;28;20174;-74
2022/06/03 05:47:31;;;;;;;8.82;4.20;;;12.10;99.90;;;;;;5070375;28;20032;-74
2022/06/03 05:50:03;;;;;;;6.47;3.75;;;;;;;;;;5066005;28;20036;-73
2022/06/03 05:52:36;;;;;;;7.38;3.95;;;;;;;;;;5073962;28;20040;-73
2022/06/03 05:55:15;;;;;;;7.28;3.88;;;;;;;;;;5065229;28;20549;-73
2022/06/03 05:57:46;;;;;;;5.05;4.28;;;;;;;;;;5061852;28;20029;-73
2022/06/03 06:00:15;;;;;;;8.07;3.70;;;;;;;;;;5069967;28;20107;-73
2022/06/03 06:03:05;;;;;;;4.25;3.25;;;12.50;99.90;;;;;;5063438;28;20028;-74
2022/06/03 06:05:41;;;;;;;5.70;3.35;;;12.80;99.90;;;;;;5028158;28;20043;-75
2022/06/03 06:08:13;;;;;;;6.22;2.83;;;;;;;;;;5052907;28;20036;-74
2022/06/03 06:10:48;;;;;;;3.00;2.50;;;;;;;;;;5059742;28;20049;-73
2022/06/03 06:13:23;;;;;;;6.03;3.30;;;;;;;;;;5059012;28;20029;-73
2022/06/03 06:15:55;;;;;;;9.43;2.65;;;;;;;;;;5061770;28;20029;-73
2022/06/03 06:18:34;;;;;;;5.63;3.42;;;;;;;;;;5070934;28;20028;-73
2022/06/03 06:21:09;;;;;;;3.22;2.38;;;;;;;;;;5064337;28;20360;-74
2022/06/03 06:23:49;;;;;;;5.22;2.35;;;14.10;99.90;;;;;;5072715;28;20078;-74
2022/06/03 06:26:30;;;;;;;5.78;2.63;;;;;;;;;;5076308;28;20020;-74
2022/06/03 06:29:21;;;;;;;2.70;1.90;;;;;;;;;;5077101;28;20112;-74
2022/06/03 06:31:56;;;;;;;2.47;1.40;;;;;;;;;;5079671;28;20547;-74
2022/06/03 06:34:25;;;;;;;5.63;1.52;;;;;;;;;;5069154;28;20040;-76
2022/06/03 06:37:12;;;;;;;3.90;1.50;;;;;;;;;;5054825;28;20036;-76
2022/06/03 06:39:53;;;;;;;2.25;1.30;;;;;;;;;;5065761;28;20524;-75
2022/06/03 06:42:26;;;;;;;1.63;1.05;;;;;;;;;;5055522;28;20165;-76
2022/06/03 06:45:12;;;;;;;3.92;1.13;;;17.80;99.90;;;;;;5075654;28;20495;-78
2022/06/03 06:47:45;;;;;;;5.05;2.35;;;;;;;;;;5068916;28;20082;-78
2022/06/03 06:50:30;;;;;;;5.80;3.83;;;17.40;99.90;;;;;;5067814;28;20036;-79
2022/06/03 06:53:11;;;;;;;4.55;1.30;;;;;;;;;;5077761;28;20063;-76
2022/06/03 06:55:37;;;;;;;3.40;1.00;;;;;;;;;;5046849;28;20411;-75
2022/06/03 06:58:06;;;;;;;3.50;1.00;;;;;;;;;;5091028;28;20081;-75
2022/06/03 07:00:43;;;;;;;4.40;1.13;;;20.80;99.90;;;;;;5061495;28;20407;-76
2022/06/03 07:03:19;;;;;;;3.35;0.90;;;;;;;;;;5047629;28;20033;-77
2022/06/03 07:05:50;;;;;;;2.15;1.08;;;;;;;;;;5062447;28;20025;-76
2022/06/03 07:08:26;;;;;;;2.88;1.08;;;22.30;98.80;;;;;;5060569;28;20037;-80
2022/06/03 07:11:06;;;;;;;3.33;0.90;;;;;;;;;;5062894;28;20044;-83
2022/06/03 07:13:42;;;;;;;1.85;0.80;;;;;;;;;;5069152;28;20029;-77
2022/06/03 07:19:49;;;;;;;1.55;1.00;;;;;;;;;;5000160;28;20035;-79
2022/06/03 07:22:25;;;;;;;1.25;0.60;;;;;;;;;;5059691;28;20994;-76
2022/06/03 07:25:01;;;;;;;2.67;1.02;;;;;;;;;;5057813;28;20124;-77
2022/06/03 07:28:02;;;;;;;3.25;1.02;;;25.00;94.10;;;;;;5046038;28;20060;-76
2022/06/03 07:30:34;;;;;;;1.73;0.70;;;;;;;;;;5077575;28;20032;-79
2022/06/03 07:33:31;;;;;;;6.65;3.85;;;25.30;90.80;;;;;;5062756;28;20039;-83
2022/06/03 07:35:57;;;;;;;8.07;5.25;;;;;;;;;;5033962;28;20582;-74
2022/06/03 07:38:23;;;;;;;2.22;1.05;;;;;;;;;;5042920;28;20060;-74
2022/06/03 07:40:52;;;;;;;1.67;0.90;;;;;;;;;;5062553;28;20475;-74
2022/06/03 07:43:27;;;;;;;3.10;0.70;;;;;;;;;;5048032;28;20158;-74
2022/06/03 07:45:56;;;;;;;5.93;1.30;;;;;;;;;;5054618;28;20483;-75
2022/06/03 07:48:23;;;;;;;1.92;0.80;;;;;;;;;;5038809;28;20435;-75
2022/06/03 07:50:53;;;;;;;1.27;0.63;;;;;;;;;;5059666;28;20485;-75
2022/06/03 07:53:19;;;;;;;4.05;0.82;;;;;;;;;;5058502;28;20028;-75
2022/06/03 07:55:50;;;;;;;2.28;1.13;;;;;;;;;;5041003;28;20459;-75
2022/06/03 07:58:18;;;;;;;;;;;26.00;91.60;;;;;;5053300;28;20441;-75
2022/06/03 08:00:45;;;;;;;4.97;0.50;;;;;;;;;;5064956;28;19916;-77
2022/06/03 08:03:14;;;;;;;2.20;0.90;;;;;;;;;;5061718;28;20025;-76
2022/06/03 08:05:40;;;;;;;2.20;0.85;;;;;;;;;;5083976;28;20039;-77
2022/06/03 08:11:01;;;;;;;7.53;2.03;;;;;;;;;;5058309;28;20412;-76
2022/06/03 08:13:27;;;;;;;;;;;;;;;;;;5072887;28;20051;-76
2022/06/03 08:16:05;;;;;;;2.47;0.77;;;26.50;90.80;;;;;;5069647;28;20267;-75
2022/06/03 08:18:40;;;;;;;2.92;1.20;;;;;;;;;;5076943;28;20059;-75
2022/06/03 08:21:08;;;;;;;2.05;0.88;;;;;;;;;;5073987;28;20071;-77
2022/06/03 08:23:34;;;;;;;5.57;1.17;;;;;;;;;;5072466;28;20032;-77
2022/06/03 08:26:03;;;;;;;2.72;1.00;;;;;;;;;;5079716;28;20051;-77
2022/06/03 08:28:31;;;;;;;1.58;0.77;;;;;;;;;;5061553;28;20040;-75
2022/06/03 08:30:58;;;;;;;1.80;0.75;;;;;;;;;;5067237;28;20027;-76
2022/06/03 08:33:34;;;;;;;4.15;1.23;;;;;;;;;;5076820;28;20097;-75
2022/06/03 08:36:00;;;;;;;1.48;0.80;;;;;;;;;;5074790;28;20031;-75
2022/06/03 08:38:41;;;;;;;3.67;1.05;;;26.10;90.00;;;;;;5059335;28;20056;-75
2022/06/03 08:41:07;;;;;;;1.27;0.65;;;;;;;;;;5067287;28;20029;-75
2022/06/03 08:43:40;;;;;;;2.63;0.95;;;;;;;;;;5066129;28;20340;-74
2022/06/03 08:46:06;;;;;;;2.22;0.70;;;;;;;;;;5070244;28;20047;-74
2022/06/03 08:48:42;;;;;;;2.92;0.80;;;;;;;;;;5049984;28;20472;-75
2022/06/03 08:51:38;;;;;;;6.10;3.17;;;;;;;;;;5059028;28;20380;-72
2022/06/03 08:54:07;;;;;;;4.13;2.13;;;;;;;;;;5043169;28;20037;-72
2022/06/03 08:56:38;;;;;;;2.58;1.08;;;26.30;88.70;;;;;;5058229;28;20053;-73
2022/06/03 08:59:22;;;;;;;2.13;0.90;;;26.50;88.90;;;;;;5052522;28;20033;-72
2022/06/03 09:02:10;;;;;;;2.00;0.90;;;26.70;85.50;;;;;;5064909;28;20036;-71
2022/06/03 09:04:41;;;;;;;1.25;0.77;;;;;;;;;;5051372;28;20527;-73
2022/06/03 09:07:10;;;;;;;2.03;0.90;;;;;;;;;;5046182;28;20101;-72
2022/06/03 09:09:52;;;;;;;2.58;0.82;;;26.60;87.80;;;;;;5066546;28;20044;-73
2022/06/03 09:12:18;;;;;;;;;;;;;;;;;;5061980;28;20355;-78
2022/06/03 09:14:46;;;;;;;3.58;2.00;;;;;;;;;;5070738;28;19909;-79
2022/06/03 09:17:31;;;;;;;5.82;1.10;;;;;;;;;;5072182;28;20383;-80
2022/06/03 09:19:58;;;;;;;3.80;0.98;;;;;;;;;;5057508;28;20016;-72
2022/06/03 09:22:25;;;;;;;2.72;0.77;;;;;;;;;;5058130;28;20032;-74
2022/06/03 09:24:57;;;;;;;2.42;0.90;;;26.50;87.00;;;;;;5044671;28;20453;-75
2022/06/03 09:27:25;;;;;;;5.03;1.00;;;26.20;84.60;;;;;;5066132;28;20068;-74
2022/06/03 09:29:55;;;;;;;2.65;0.88;;;26.10;87.00;;;;;;5069059;28;20028;-75
2022/06/03 09:32:22;;;;;;;1.63;0.80;;;;;;;;;;5067403;28;20032;-74
2022/06/03 09:34:52;;;;;;;3.40;0.77;;;26.30;86.60;;;;;;5070292;28;20143;-74
2022/06/03 09:37:27;;;;;;;3.70;0.80;;;;;;;;;;5062793;28;20040;-74
2022/06/03 09:39:54;;;;;;;2.10;0.80;;;26.10;83.90;;;;;;5060639;28;20032;-74
2022/06/03 09:42:21;;;;;;;1.65;0.90;;;;;;;;;;5063895;28;20082;-74
2022/06/03 09:44:49;;;;;;;6.32;0.80;;;;;;;;;;5064456;28;20060;-75
2022/06/03 09:47:18;;;;;;;1.45;0.90;;;;;;;;;;5057679;28;20043;-75
2022/06/03 09:49:46;;;;;;;3.67;0.93;;;26.30;86.00;;;;;;5067944;28;20111;-75
2022/06/03 09:52:16;;;;;;;2.10;1.20;;;26.10;84.30;;;;;;5070452;28;20020;-73
2022/06/03 09:54:43;;;;;;;4.00;0.90;;;;;;;;;;5063449;28;20473;-73
2022/06/03 09:57:15;;;;;;;2.22;1.30;;;;;;;;;;5064153;28;20033;-73
2022/06/03 09:59:52;;;;;;;3.15;1.48;;;26.20;86.40;;;;;;5072616;28;20035;-72
2022/06/03 10:02:18;;;;;;;3.28;0.90;;;;;;;;;;5058150;28;20391;-73
2022/06/03 10:04:44;;;;;;;1.65;1.23;;;;;;;;;;5060100;28;20037;-74
2022/06/03 10:07:10;;;;;;;2.05;0.90;;;;;;;;;;5059882;28;20037;-74
2022/06/03 10:18:02;;;;;;;1.98;1.00;;;;;;;;;;5065316;28;20404;-74
2022/06/03 10:20:28;;;;;;;4.23;0.97;;;;;;;;;;5071419;28;20046;-75
2022/06/03 10:22:55;;;;;;;0.80;0.70;;;;;;;;;;5068727;28;20295;-75
2022/06/03 10:25:21;;;;;;;2.97;0.82;;;;;;;;;;5055349;28;20102;-75
2022/06/03 10:27:47;;;;;;;0.80;0.80;;;;;;;;;;5068848;28;20434;-75
2022/06/03 10:30:15;;;;;;;1.45;0.88;;;;;;;;;;5079947;28;20705;-75
2022/06/03 10:32:41;;;;;;;4.72;1.05;;;;;;;;;;5069104;28;20495;-75
2022/06/03 10:35:13;;;;;;;7.35;1.25;;;26.90;85.50;;;;;;5078716;28;20111;-75
2022/06/03 10:37:53;;;;;;;5.35;1.35;;;26.70;84.80;;;;;;5067935;28;20417;-76
2022/06/03 10:40:20;;;;;;;2.60;0.85;;;;;;;;;;5078610;28;20044;-76
2022/06/03 10:42:47;;;;;;;1.63;0.85;;;;;;;;;;5081874;28;20033;-73
2022/06/03 10:45:13;;;;;;;1.88;1.20;;;;;;;;;;5082765;28;20089;-75
2022/06/03 10:47:43;;;;;;;2.67;0.75;;;;;;;;;;5071687;28;20396;-73
2022/06/03 10:50:12;;;;;;;2.80;1.00;;;;;;;;;;5073474;28;20033;-73
2022/06/03 11:01:27;;;;;;;3.60;2.25;;;;;;;;;;5009081;28;20044;-71
2022/06/03 11:03:53;;;;;;;1.38;0.75;;;;;;;;;;5007159;28;20604;-71
2022/06/03 11:06:28;;;;;;;1.63;0.70;;;;;;;;;;5038985;28;20048;-72
2022/06/03 11:08:59;;;;;;;3.30;0.90;;;;;;;;;;5075499;28;20044;-71
2022/06/03 11:11:39;;;;;;;2.05;0.90;;;;;;;;;;5065439;28;20044;-72
2022/06/03 11:14:23;;;;;;;2.20;1.00;;;;;;;;;;5066023;28;20111;-71
2022/06/03 11:17:10;;;;;;;2.03;0.88;;;;;;;;;;5059881;28;20035;-71
2022/06/03 11:19:39;;;;;;;5.13;1.00;;;;;;;;;;5052971;28;20053;-71
2022/06/03 11:22:24;;;;;;;2.72;1.17;;;;;;;;;;5074295;28;20494;-71
2022/06/03 11:25:03;;;;;;;1.98;0.77;;;;;;;;;;5077747;28;20475;-71
2022/06/03 11:27:40;;;;;;;7.00;0.90;;;;;;;;;;5074662;28;20112;-72
2022/06/03 11:30:15;;;;;;;5.53;1.42;;;26.00;84.70;;;;;;5068969;28;20028;-73
2022/06/03 11:32:43;;;;;;;1.38;0.98;;;;;;;;;;5063106;28;20063;-72
2022/06/03 11:35:22;;;;;;;3.78;2.88;;;;;;;;;;5065270;28;20441;-74
2022/06/03 11:37:49;;;;;;;2.50;0.95;;;;;;;;;;5075114;28;20411;-73
2022/06/03 11:40:21;;;;;;;2.08;1.00;;;;;;;;;;5061609;28;20033;-72
2022/06/03 11:42:50;;;;;;;1.02;0.90;;;;;;;;;;5072444;28;20114;-74
2022/06/03 11:45:19;;;;;;;2.83;1.00;;;;;;;;;;5071324;28;20356;-74
2022/06/03 11:48:05;;;;;;;1.20;0.98;;;;;;;;;;5080071;28;20157;-75
2022/06/03 11:50:31;;;;;;;1.40;0.95;;;;;;;;;;5071617;28;20024;-76
2022/06/03 11:52:58;;;;;;;2.22;0.80;;;25.90;84.90;;;;;;5072785;28;20098;-75
2022/06/03 11:55:26;;;;;;;4.55;0.82;;;;;;;;;;5048780;28;20145;-74
2022/06/03 11:57:56;;;;;;;3.70;1.88;;;;;;;;;;5065971;28;20068;-79
2022/06/03 12:00:24;;;;;;;5.45;3.17;;;;;;;;;;5073192;28;20029;-75
2022/06/03 12:03:28;;;;;;;2.28;0.70;;;26.10;86.60;;;;;;5074129;28;20024;-75
2022/06/03 12:05:59;;;;;;;1.98;1.00;;;;;;;;;;5057784;28;20035;-76
2022/06/03 12:08:28;;;;;;;1.92;0.70;;;;;;;;;;5079193;28;20153;-76
2022/06/03 12:10:58;;;;;;;6.03;1.13;;;;;;;;;;5073162;28;20138;-77
2022/06/03 12:13:30;;;;;;;4.07;1.02;;;26.20;92.40;;;;;;5054439;28;20024;-75
2022/06/03 12:15:56;;;;;;;2.25;1.02;;;;;;;;;;5055495;28;20024;-75
2022/06/03 12:18:32;;;;;;;3.00;0.70;;;;;;;;;;5052399;28;20036;-75
2022/06/03 12:21:00;;;;;;;6.70;1.02;;;;;;;;;;5066029;28;20464;-75
2022/06/03 12:23:26;;;;;;;2.78;0.70;;;;;;;;;;5059601;28;20109;-75
2022/06/03 12:25:53;;;;;;;4.35;1.17;;;;;;;;;;5071314;28;20500;-75
2022/06/03 12:28:21;;;;;;;4.90;1.05;;;;;;;;;;5065840;28;20033;-75
2022/06/03 12:30:53;;;;;;;4.45;0.70;;;;;;;;;;5068418;28;20463;-75
2022/06/03 12:33:25;;;;;;;2.22;1.00;;;;;;;;;;5070467;28;20464;-75
2022/06/03 12:36:03;;;;;;;4.25;0.88;;;;;;;;;;5064412;28;20113;-75
2022/06/03 12:38:39;;;;;;;1.63;0.90;;;26.10;92.80;;;;;;5067202;28;20017;-74
2022/06/03 12:41:05;;;;;;;3.13;1.65;;;;;;;;;;5072261;28;20025;-74
2022/06/03 12:43:47;;;;;;;4.07;0.82;;;;;;;;;;5052014;28;20021;-75
2022/06/03 12:46:32;;;;;;;1.60;0.80;;;;;;;;;;5061324;28;20064;-75
2022/06/03 12:48:58;;;;;;;2.40;0.75;;;;;;;;;;5070870;28;20285;-75
2022/06/03 12:51:33;;;;;;;1.83;0.88;;;26.00;84.60;;;;;;5068400;28;20032;-76
2022/06/03 12:54:03;;;;;;;3.03;0.98;;;;;;;;;;5066641;28;20059;-75
2022/06/03 12:56:42;;;;;;;1.85;0.60;;;;;;;;;;5043450;28;20025;-75
2022/06/03 12:59:17;;;;;;;1.45;0.80;;;;;;;;;;5067825;28;20054;-75
2022/06/03 13:01:43;;;;;;;2.63;0.70;;;;;;;;;;5057772;28;20453;-75
2022/06/03 13:04:41;;;;;;;2.05;0.85;;;26.40;81.10;;;;;;5063047;28;20063;-75
2022/06/03 13:07:15;;;;;;;1.13;0.57;;;;;;;;;;5070554;28;20044;-75
2022/06/03 13:09:59;;;;;;;2.92;0.75;;;;;;;;;;5068254;28;20045;-75
2022/06/03 13:12:28;;;;;;;2.92;1.10;;;;;;;;;;5065777;28;20036;-75
2022/06/03 13:14:55;;;;;;;1.85;0.82;;;;;;;;;;5067391;28;20166;-75
2022/06/03 13:17:39;;;;;;;4.90;1.27;;;;;;;;;;5062813;28;20064;-75
2022/06/03 13:20:06;;;;;;;1.65;0.75;;;;;;;;;;5070998;28;20440;-75
2022/06/03 13:22:47;;;;;;;1.38;0.63;;;25.80;86.10;;;;;;5069205;28;20025;-76
2022/06/03 13:25:15;;;;;;;4.85;1.00;;;25.10;82.10;;;;;;5063300;28;20048;-75
2022/06/03 13:28:01;;;;;;;2.80;1.40;;;;;;;;;;5050816;28;20115;-75
2022/06/03 13:30:36;;;;;;;2.35;1.02;;;25.40;89.10;;;;;;5052877;28;20036;-75
2022/06/03 13:33:12;;;;;;;3.38;1.83;;;;;;;;;;5070830;28;20039;-75
2022/06/03 13:35:57;;;;;;;2.20;1.13;;;;;;;;;;5064823;28;20021;-76
2022/06/03 13:38:27;;;;;;;3.13;1.00;;;25.30;87.80;;;;;;5060901;28;20037;-76
2022/06/03 13:44:05;;;;;;;3.45;0.88;;;;;;;;;;5061720;28;20503;-75
2022/06/03 13:46:33;;;;;;;4.22;1.10;;;25.00;96.80;;;;;;5053930;28;20036;-76
2022/06/03 13:49:02;;;;;;;4.57;0.95;;;;;;;;;;5065432;28;20421;-75
2022/06/03 13:51:47;;;;;;;4.15;0.95;;;25.10;89.40;;;;;;5075728;28;20024;-75
2022/06/03 13:54:16;;;;;;;3.70;1.55;;;;;;;;;;5044558;28;20055;-75
2022/06/03 13:56:51;;;;;;;3.97;1.38;;;;;;;;;;5043846;28;20032;-74
2022/06/03 13:59:17;;;;;;;3.33;1.00;;;;;;;;;;5059761;28;20021;-76
2022/06/03 14:01:46;;;;;;;2.92;0.82;;;;;;;;;;5073320;28;20046;-76
2022/06/03 14:04:27;;;;;;;3.13;0.93;;;24.60;88.80;;;;;;5065598;28;20043;-76
2022/06/03 14:07:12;;;;;;;3.15;1.00;;;;;;;;;;5039141;28;20139;-75
2022/06/03 14:09:50;;;;;;;2.05;0.63;;;;;;;;;;5065827;28;20060;-76
2022/06/03 14:12:27;;;;;;;2.25;0.60;;;;;;;;;;5067771;28;20031;-76
2022/06/03 14:15:04;;;;;;;6.63;0.88;;;;;;;;;;5060300;28;20029;-76
2022/06/03 14:17:41;;;;;;;1.52;0.70;;;24.20;88.40;;;;;;5087250;28;20032;-75
2022/06/03 14:20:11;;;;;;;9.00;0.80;;;;;;;;;;5078095;28;20028;-75
2022/06/03 14:23:03;;;;;;;2.50;0.70;;;24.20;89.70;;;;;;5068308;28;20025;-74
2022/06/03 14:25:35;;;;;;;5.05;0.60;;;;;;;;;;5048675;28;20048;-74
2022/06/03 14:28:08;;;;;;;0.80;0.32;;;;;;;;;;5061058;28;20036;-74
2022/06/03 14:30:42;;;;;;;1.33;0.60;;;;;;;;;;5073955;28;20020;-74
2022/06/03 14:33:09;;;;;;;3.40;0.75;;;24.20;88.40;;;;;;5070921;28;20062;-75
2022/06/03 14:35:39;;;;;;;4.53;0.77;;;24.10;88.90;;;;;;5056061;28;20484;-75
2022/06/03 14:38:07;;;;;;;1.75;0.52;;;;;;;;;;5056782;28;20124;-75
2022/06/03 14:40:35;;;;;;;2.70;0.90;;;;;;;;;;5072172;28;20178;-75
2022/06/03 14:43:02;;;;;;;3.85;0.90;;;;;;;;;;5052891;28;20071;-75
2022/06/03 14:45:36;;;;;;;3.42;0.50;;;;;;;;;;5070456;28;20017;-75
2022/06/03 14:48:11;;;;;;;1.25;0.47;;;23.50;89.80;;;;;;5068769;28;20059;-75
2022/06/03 14:50:39;;;;;;;2.58;0.63;;;;;;;;;;5056585;28;20032;-75
2022/06/03 14:53:17;;;;;;;1.77;0.60;;;23.80;89.90;;;;;;5073797;28;20024;-75
2022/06/03 14:55:45;;;;;;;1.45;0.50;;;;;;;;;;5072626;28;20535;-75
2022/06/03 14:58:19;;;;;;;4.32;0.90;;;;;;;;;;5065912;28;20484;-75
2022/06/03 15:00:59;;;;;;;1.80;0.45;;;23.60;89.20;;;;;;5069802;28;20040;-75
2022/06/03 15:03:29;;;;;;;4.75;0.30;;;;;;;;;;5059484;28;20029;-75
2022/06/03 15:06:01;;;;;;;1.40;0.55;;;23.50;84.80;;;;;;5065357;28;20029;-74
2022/06/03 15:08:33;;;;;;;10.63;0.73;;;;;;;;;;5067526;28;20056;-75
2022/06/03 15:11:09;;;;;;;;;;;23.70;89.80;;;;;;5073779;28;20402;-75
2022/06/03 15:13:36;;;;;;;1.55;0.50;;;;;;;;;;5081899;28;19999;-86
2022/06/03 15:16:04;;;;;;;1.02;0.63;;;;;;;;;;5087716;28;20025;-79
2022/06/03 15:18:30;;;;;;;7.40;1.05;;;;;;;;;;5067662;28;20112;-79
2022/06/03 15:21:09;;;;;;;3.47;0.60;;;;;;;;;;5076122;28;20033;-81
2022/06/03 15:23:35;;;;;;;0.68;0.40;;;23.90;86.90;;;;;;5076489;28;20020;-80
2022/06/03 15:26:02;;;;;;;1.20;0.40;;;;;;;;;;5059433;28;20384;-81
2022/06/03 15:28:29;;;;;;;3.90;0.50;;;;;;;;;;5059204;28;20594;-80
2022/06/03 15:31:03;;;;;;;1.48;0.60;;;;;;;;;;5064273;28;21159;-84
2022/06/03 15:34:00;;;;;;;1.05;0.50;;;23.30;90.00;;;;;;5069321;28;20055;-75
2022/06/03 15:36:39;;;;;;;2.83;1.00;;;;;;;;;;5060094;28;20070;-75
2022/06/03 15:39:12;;;;;;;3.97;2.33;;;;;;;;;;5062272;28;20129;-74